首页
METAR-TAF:

METAR-TAF

机场 :

苏丹马慕国际机场

瓜拉登嘉楼, 马来西亚

纬度: 05-22-53N, 经度: 103-06-17E, 海拔: 6米

当前天气观测

该预报发布于48分钟前的10:00 UTC
风速6节,风向东南,在东北南转西南之间变化
温度 31°C
湿度 79%
气压 1006 hPa
能见度10公里或以上
少量云层高于1800英尺

METAR: WMKN 201000Z 13006KT 040V210 9999 FEW018 31/27 Q1006

时间: 18:48 (10:48 UTC)

预报

该预报发布于5小时和48分钟前的05:00 UTC
预报有效从20日的 06点(UTC)到 21日的 06点(UTC)
风速6节,风向南转南东
能见度10公里或以上
少量云层高于2000英尺
短暂存在
从 20日的 09点(UTC)到 20日的 11点(UTC)
能見度: 7000
少量云层高于1700英尺, 积雨云.
雷暴, 小雨,

TAF: WMKN 200500Z 2006/2106 15006KT 9999 FEW020 TEMPO 2009/2011 7000 -TSRA FEW017CB

超过4000个机场的气象观测和天气预报(METAR&TAF报告)。

可查询的气象台以黄色和红色小点在地图上表示。

将鼠标移到小点上方,可查看气象台名称。

然后点击查看天气观测和预报。

如需切换地图:点击带黑十字的绿色按钮放大地图;点击带横线的绿色按钮缩小地图;或者点击绿色箭头查看邻近地区的地图。


METAR-TAF: